createdAt,value
2023-06-29T00:00:02.277Z,3.03
2023-06-29T00:02:33.013Z,2.25
2023-06-29T00:05:00.971Z,2.50
2023-06-29T00:07:28.579Z,2.17
2023-06-29T00:09:56.109Z,2.33
2023-06-29T00:12:23.846Z,2.30
2023-06-29T00:14:51.253Z,2.60
2023-06-29T00:17:18.641Z,2.30
2023-06-29T00:19:48.888Z,2.12
2023-06-29T00:22:17.594Z,2.72
2023-06-29T00:24:45.035Z,2.70
2023-06-29T00:27:13.309Z,2.65
2023-06-29T00:29:42.731Z,2.20
2023-06-29T00:32:11.466Z,2.28
2023-06-29T00:34:39.169Z,2.33
2023-06-29T00:37:07.010Z,2.22
2023-06-29T00:39:35.176Z,2.22
2023-06-29T00:42:03.483Z,2.03
2023-06-29T00:44:30.901Z,2.80
2023-06-29T00:46:58.477Z,2.25
2023-06-29T00:49:26.383Z,2.58
2023-06-29T00:51:54.534Z,2.37
2023-06-29T00:54:22.862Z,2.10
2023-06-29T00:56:50.696Z,2.00
2023-06-29T00:59:18.128Z,2.33
2023-06-29T01:01:46.896Z,2.55
2023-06-29T01:04:18.725Z,2.03
2023-06-29T01:06:58.480Z,2.50
2023-06-29T01:09:26.558Z,2.45
2023-06-29T01:11:54.154Z,2.10
2023-06-29T01:14:22.220Z,2.15
2023-06-29T01:16:51.251Z,2.50
2023-06-29T01:19:26.956Z,2.40
2023-06-29T01:24:39.190Z,2.62
2023-06-29T01:27:09.533Z,2.70
2023-06-29T01:29:37.960Z,2.67
2023-06-29T01:32:08.374Z,2.17
2023-06-29T01:34:37.216Z,2.58
2023-06-29T01:37:19.078Z,2.30
2023-06-29T01:40:01.447Z,2.45
2023-06-29T01:42:33.688Z,2.30
2023-06-29T01:45:02.340Z,2.58
2023-06-29T01:47:30.030Z,2.80
2023-06-29T01:49:57.750Z,2.53
2023-06-29T01:52:25.964Z,2.90
2023-06-29T01:54:54.706Z,2.90
2023-06-29T01:57:23.327Z,2.95
2023-06-29T01:59:53.349Z,2.62
2023-06-29T02:02:20.791Z,2.85
2023-06-29T02:04:49.247Z,2.78
2023-06-29T02:07:16.770Z,2.95
2023-06-29T02:09:44.716Z,3.05
2023-06-29T02:12:13.173Z,2.90
2023-06-29T02:14:40.713Z,3.05
2023-06-29T02:17:08.225Z,3.05
2023-06-29T02:19:36.010Z,3.30
2023-06-29T02:22:03.474Z,3.37
2023-06-29T02:24:32.128Z,2.80
2023-06-29T02:27:00.189Z,2.80
2023-06-29T02:29:27.619Z,3.12
2023-06-29T02:31:55.091Z,3.87
2023-06-29T02:34:23.272Z,3.45
2023-06-29T02:36:50.839Z,4.12
2023-06-29T02:39:18.579Z,3.70
2023-06-29T02:41:46.232Z,3.75
2023-06-29T02:44:13.715Z,3.50
2023-06-29T02:46:41.713Z,3.78
2023-06-29T02:49:09.594Z,3.85
2023-06-29T02:51:37.168Z,3.80
2023-06-29T02:54:04.981Z,3.95
2023-06-29T02:56:32.746Z,3.60
2023-06-29T02:59:00.980Z,4.22
2023-06-29T03:01:28.733Z,3.72
2023-06-29T03:04:00.075Z,3.15
2023-06-29T03:06:27.661Z,3.28
2023-06-29T03:08:57.442Z,3.22
2023-06-29T03:11:25.115Z,3.33
2023-06-29T03:13:52.543Z,3.25
2023-06-29T03:16:19.988Z,3.35
2023-06-29T03:18:47.675Z,3.10
2023-06-29T03:21:18.672Z,2.92
2023-06-29T03:23:47.410Z,2.80
2023-06-29T03:26:15.092Z,3.12
2023-06-29T03:28:42.519Z,3.37
2023-06-29T03:31:09.934Z,3.25
2023-06-29T03:33:37.784Z,2.87
2023-06-29T03:36:06.482Z,2.60
2023-06-29T03:38:33.859Z,3.33
2023-06-29T03:41:01.599Z,3.00
2023-06-29T03:43:29.051Z,2.40
2023-06-29T03:45:59.242Z,2.65
2023-06-29T03:48:29.614Z,2.65
2023-06-29T03:50:58.343Z,2.72
2023-06-29T03:53:25.755Z,2.33
2023-06-29T03:55:53.428Z,2.62
2023-06-29T03:58:20.926Z,2.12
2023-06-29T04:00:48.369Z,2.37
2023-06-29T04:03:16.094Z,2.53
2023-06-29T04:05:44.066Z,2.17
2023-06-29T04:08:11.594Z,2.60
2023-06-29T04:10:39.327Z,2.67
2023-06-29T04:13:06.833Z,2.40
2023-06-29T04:15:34.251Z,2.28
2023-06-29T04:18:02.573Z,2.10
2023-06-29T04:20:30.677Z,2.37
2023-06-29T04:22:58.072Z,2.42
2023-06-29T04:25:25.807Z,1.92
2023-06-29T04:27:53.205Z,2.00
2023-06-29T04:30:20.888Z,2.28
2023-06-29T04:32:48.665Z,2.15
2023-06-29T04:35:16.319Z,2.20
2023-06-29T04:37:43.823Z,1.98
2023-06-29T04:40:13.923Z,2.08
2023-06-29T04:42:49.056Z,1.73
2023-06-29T04:45:19.826Z,2.17
2023-06-29T04:47:49.351Z,2.22
2023-06-29T04:50:17.142Z,1.90
2023-06-29T04:52:44.708Z,2.30
2023-06-29T04:55:12.206Z,1.80
2023-06-29T04:57:39.946Z,2.08
2023-06-29T05:00:12.363Z,2.15
2023-06-29T05:02:40.265Z,2.33
2023-06-29T05:05:08.635Z,1.65
2023-06-29T05:07:36.310Z,2.12
2023-06-29T05:10:04.315Z,2.03
2023-06-29T05:12:31.741Z,2.17
2023-06-29T05:14:59.112Z,2.28
2023-06-29T05:17:27.032Z,2.20
2023-06-29T05:19:54.484Z,2.08
2023-06-29T05:22:21.930Z,2.15
2023-06-29T05:24:49.598Z,2.50
2023-06-29T05:27:17.013Z,2.20
2023-06-29T05:29:44.457Z,2.67
2023-06-29T05:32:12.176Z,2.50
2023-06-29T05:34:39.702Z,2.53
2023-06-29T05:37:07.192Z,2.20
2023-06-29T05:39:35.120Z,2.20
2023-06-29T05:42:02.522Z,2.40
2023-06-29T05:44:30.042Z,1.85
2023-06-29T05:46:59.139Z,2.45
2023-06-29T05:49:26.540Z,2.62
2023-06-29T05:51:54.038Z,2.37
2023-06-29T05:54:21.776Z,2.62
2023-06-29T05:56:49.233Z,2.35
2023-06-29T05:59:16.634Z,2.25
2023-06-29T06:01:44.480Z,2.33
2023-06-29T06:04:12.243Z,2.60
2023-06-29T06:06:40.420Z,2.40
2023-06-29T06:09:07.861Z,2.75
2023-06-29T06:11:35.568Z,2.37
2023-06-29T06:14:03.011Z,2.58
2023-06-29T06:16:30.514Z,2.42
2023-06-29T06:18:58.195Z,2.72
2023-06-29T06:21:25.731Z,2.40
2023-06-29T06:23:54.568Z,2.37
2023-06-29T06:26:22.224Z,2.50
2023-06-29T06:28:50.055Z,2.42
2023-06-29T06:31:32.758Z,2.28
2023-06-29T06:34:02.371Z,2.30
2023-06-29T06:36:33.707Z,2.55
2023-06-29T06:39:01.641Z,2.42
2023-06-29T06:41:29.091Z,2.67
2023-06-29T06:43:56.994Z,2.22
2023-06-29T06:46:24.750Z,2.20
2023-06-29T06:48:52.443Z,2.45
2023-06-29T06:51:19.854Z,2.40
2023-06-29T06:53:48.419Z,2.30
2023-06-29T06:56:15.865Z,2.70
2023-06-29T06:58:43.303Z,2.60
2023-06-29T07:01:11.192Z,2.50
2023-06-29T07:03:38.673Z,2.55
2023-06-29T07:06:06.469Z,2.85
2023-06-29T07:08:36.199Z,2.50
2023-06-29T07:11:04.505Z,2.40
2023-06-29T07:13:32.584Z,2.20
2023-06-29T07:16:00.372Z,2.15
2023-06-29T07:18:27.815Z,2.40
2023-06-29T07:25:56.175Z,1.80
2023-06-29T07:28:23.657Z,2.85
2023-06-29T07:30:52.783Z,1.95
2023-06-29T07:33:20.303Z,2.00
2023-06-29T07:35:47.740Z,2.15
2023-06-29T07:38:16.329Z,2.35
2023-06-29T07:40:43.792Z,1.85
2023-06-29T07:43:11.885Z,1.92
2023-06-29T07:45:39.547Z,2.05
2023-06-29T07:48:07.327Z,2.40
2023-06-29T07:50:34.859Z,1.95
2023-06-29T07:53:02.975Z,2.40
2023-06-29T07:55:30.428Z,2.40
2023-06-29T08:00:28.518Z,2.05
2023-06-29T08:02:56.260Z,2.37
2023-06-29T08:07:55.186Z,1.95
2023-06-29T08:10:23.246Z,1.95
2023-06-29T08:12:50.819Z,1.98
2023-06-29T08:15:18.364Z,2.00
2023-06-29T08:17:47.199Z,2.37
2023-06-29T08:20:14.855Z,2.20
2023-06-29T08:22:46.333Z,2.40
2023-06-29T08:25:14.066Z,2.00
2023-06-29T08:27:42.716Z,2.08
2023-06-29T08:30:10.703Z,2.00
2023-06-29T08:32:38.394Z,2.20
2023-06-29T08:35:06.365Z,1.75
2023-06-29T08:37:33.740Z,2.30
2023-06-29T08:40:01.908Z,2.28
2023-06-29T08:42:29.498Z,2.10
2023-06-29T08:44:57.046Z,2.12
2023-06-29T08:47:25.765Z,2.05
2023-06-29T08:49:57.390Z,2.10
2023-06-29T08:52:27.487Z,1.92
2023-06-29T08:54:55.018Z,2.30
2023-06-29T08:57:22.562Z,2.60
2023-06-29T08:59:51.359Z,2.47
2023-06-29T09:02:19.089Z,2.12
2023-06-29T09:04:46.545Z,1.90
2023-06-29T09:07:17.074Z,2.30
2023-06-29T09:09:44.565Z,2.00
2023-06-29T09:12:12.023Z,2.25
2023-06-29T09:14:44.952Z,2.25
2023-06-29T09:17:17.615Z,1.62
2023-06-29T09:19:55.292Z,2.10
2023-06-29T09:22:23.400Z,1.37
2023-06-29T09:25:07.175Z,2.30
2023-06-29T09:27:37.905Z,1.50
2023-06-29T09:30:07.490Z,2.20
2023-06-29T09:32:41.049Z,2.20
2023-06-29T09:35:09.862Z,2.35
2023-06-29T09:37:37.574Z,2.10
2023-06-29T09:40:10.865Z,2.00
2023-06-29T09:42:39.591Z,2.10
2023-06-29T09:45:15.670Z,2.10
2023-06-29T09:50:23.793Z,2.30
2023-06-29T09:52:55.824Z,1.87
2023-06-29T09:55:30.998Z,2.15
2023-06-29T10:00:28.862Z,1.90
2023-06-29T10:02:57.000Z,1.40
2023-06-29T10:05:24.581Z,2.25
2023-06-29T10:07:54.751Z,1.60
2023-06-29T10:10:24.530Z,1.62
2023-06-29T10:12:56.033Z,1.77
2023-06-29T10:15:26.481Z,1.67
2023-06-29T10:18:04.359Z,1.83
2023-06-29T10:20:34.297Z,1.98
2023-06-29T10:23:04.254Z,1.62
2023-06-29T10:25:34.849Z,1.67
2023-06-29T10:28:02.877Z,2.10
2023-06-29T10:30:30.355Z,1.65
2023-06-29T10:32:58.852Z,1.60
2023-06-29T10:35:27.222Z,1.90
2023-06-29T10:37:58.459Z,1.60
2023-06-29T10:40:27.317Z,1.58
2023-06-29T10:42:56.192Z,2.00
2023-06-29T10:45:23.608Z,2.03
2023-06-29T10:47:57.155Z,1.77
2023-06-29T10:50:26.346Z,1.40
2023-06-29T10:52:59.919Z,1.83
2023-06-29T10:55:30.194Z,1.87
2023-06-29T10:58:02.522Z,2.10
2023-06-29T11:00:29.951Z,1.80
2023-06-29T11:03:00.534Z,1.62
2023-06-29T11:05:29.576Z,1.92
2023-06-29T11:07:57.319Z,1.48
2023-06-29T11:10:25.015Z,1.83
2023-06-29T11:12:55.631Z,1.90
2023-06-29T11:15:23.990Z,1.67
2023-06-29T11:17:52.484Z,1.77
2023-06-29T11:20:21.969Z,1.83
2023-06-29T11:22:52.713Z,2.00
2023-06-29T11:25:20.500Z,1.77
2023-06-29T11:27:48.084Z,1.60
2023-06-29T11:30:15.510Z,2.00
2023-06-29T11:32:43.516Z,2.00
2023-06-29T11:35:11.650Z,1.70
2023-06-29T11:37:40.172Z,1.90
2023-06-29T11:40:24.032Z,1.65
2023-06-29T11:42:51.878Z,1.92
2023-06-29T11:45:19.711Z,1.85
2023-06-29T11:47:52.173Z,2.00
2023-06-29T11:50:19.993Z,1.87
2023-06-29T11:52:47.764Z,1.90
2023-06-29T11:55:16.582Z,1.70
2023-06-29T11:57:51.288Z,1.85
2023-06-29T12:00:18.596Z,1.48
2023-06-29T12:02:46.287Z,2.15
2023-06-29T12:05:14.079Z,1.45
2023-06-29T12:07:45.880Z,2.03
2023-06-29T12:10:26.202Z,1.90
2023-06-29T12:12:57.369Z,1.70
2023-06-29T12:15:26.709Z,1.48
2023-06-29T12:18:10.086Z,1.40
2023-06-29T12:20:43.971Z,1.75
2023-06-29T12:23:13.766Z,1.70
2023-06-29T12:25:49.251Z,1.90
2023-06-29T12:30:45.179Z,1.70
2023-06-29T12:33:14.216Z,1.77
2023-06-29T12:35:43.618Z,1.62
2023-06-29T12:38:12.659Z,1.87
2023-06-29T12:40:40.265Z,1.75
2023-06-29T12:43:07.698Z,1.80
2023-06-29T12:45:35.737Z,1.33
2023-06-29T12:48:04.901Z,1.80
2023-06-29T12:50:32.535Z,1.80
2023-06-29T12:53:00.434Z,1.70
2023-06-29T12:55:27.863Z,1.90
2023-06-29T12:57:55.285Z,1.95
2023-06-29T13:00:23.136Z,1.50
2023-06-29T13:02:53.762Z,1.80
2023-06-29T13:05:21.491Z,1.90
2023-06-29T13:07:49.296Z,1.62
2023-06-29T13:10:16.783Z,1.90
2023-06-29T13:12:44.902Z,1.83
2023-06-29T13:15:12.656Z,1.87
2023-06-29T13:17:40.076Z,2.40
2023-06-29T13:20:07.858Z,1.67
2023-06-29T13:22:35.870Z,1.95
2023-06-29T13:25:03.596Z,1.70
2023-06-29T13:27:31.376Z,1.98
2023-06-29T13:29:59.046Z,1.45
2023-06-29T13:32:26.712Z,1.90
2023-06-29T13:34:54.540Z,1.80
2023-06-29T13:37:23.336Z,1.98
2023-06-29T13:39:50.918Z,2.10
2023-06-29T13:42:18.635Z,2.37
2023-06-29T13:44:47.209Z,1.40
2023-06-29T13:47:23.122Z,1.55
2023-06-29T13:49:51.912Z,1.50
2023-06-29T13:52:19.442Z,1.70
2023-06-29T13:54:46.970Z,1.67
2023-06-29T13:57:14.697Z,1.65
2023-06-29T13:59:42.167Z,1.50
2023-06-29T14:02:09.664Z,1.60
2023-06-29T14:04:37.484Z,1.35
2023-06-29T14:07:05.167Z,1.35
2023-06-29T14:09:34.006Z,1.77
2023-06-29T14:12:01.712Z,1.65
2023-06-29T14:14:29.121Z,1.77
2023-06-29T14:16:56.540Z,1.75
2023-06-29T14:19:24.277Z,1.60
2023-06-29T14:21:51.693Z,1.77
2023-06-29T14:24:19.107Z,1.90
2023-06-29T14:26:46.846Z,1.62
2023-06-29T14:29:14.198Z,1.85
2023-06-29T14:31:41.734Z,2.12
2023-06-29T14:34:09.632Z,1.50
2023-06-29T14:36:37.125Z,1.52
2023-06-29T14:39:04.567Z,1.70
2023-06-29T14:41:34.594Z,2.87
2023-06-29T14:44:05.017Z,1.65
2023-06-29T14:46:32.764Z,1.45
2023-06-29T14:49:00.539Z,2.05
2023-06-29T14:51:27.980Z,1.67
2023-06-29T14:53:55.656Z,1.40
2023-06-29T14:56:23.069Z,2.05
2023-06-29T14:58:50.575Z,1.62
2023-06-29T15:01:18.423Z,1.70
2023-06-29T15:03:46.949Z,1.50
2023-06-29T15:06:16.083Z,1.87
2023-06-29T15:08:43.841Z,1.87
2023-06-29T15:11:11.226Z,1.90
2023-06-29T15:13:38.668Z,1.60
2023-06-29T15:16:07.987Z,1.70
2023-06-29T15:18:43.317Z,1.83
2023-06-29T15:21:18.876Z,1.70
2023-06-29T15:23:46.272Z,1.83
2023-06-29T15:26:13.692Z,1.50
2023-06-29T15:28:41.404Z,1.80
2023-06-29T15:31:09.183Z,1.30
2023-06-29T15:33:36.637Z,1.80
2023-06-29T15:36:04.578Z,1.60
2023-06-29T15:38:32.408Z,1.70
2023-06-29T15:40:59.894Z,1.50
2023-06-29T15:43:27.692Z,1.55
2023-06-29T15:45:55.155Z,1.58
2023-06-29T15:48:22.670Z,1.65
2023-06-29T15:50:50.428Z,1.60
2023-06-29T15:53:17.888Z,1.80
2023-06-29T15:55:45.584Z,1.80
2023-06-29T15:58:13.423Z,1.73
2023-06-29T16:00:40.859Z,1.65
2023-06-29T16:03:09.311Z,2.03
2023-06-29T16:05:36.936Z,1.75
2023-06-29T16:08:04.644Z,1.92
2023-06-29T16:10:32.375Z,2.12
2023-06-29T16:12:59.859Z,1.87
2023-06-29T16:15:28.735Z,1.67
2023-06-29T16:17:58.260Z,1.62
2023-06-29T16:20:25.702Z,1.62
2023-06-29T16:22:53.166Z,1.92
2023-06-29T16:25:24.789Z,1.45
2023-06-29T16:27:52.462Z,1.67
2023-06-29T16:30:20.516Z,1.75
2023-06-29T16:32:48.418Z,1.70
2023-06-29T16:35:16.100Z,1.75
2023-06-29T16:37:46.336Z,1.62
2023-06-29T16:40:14.296Z,1.67
2023-06-29T16:42:41.751Z,1.75
2023-06-29T16:45:09.614Z,1.55
2023-06-29T16:47:38.692Z,1.85
2023-06-29T16:50:06.558Z,1.50
2023-06-29T16:52:34.016Z,1.30
2023-06-29T16:55:01.666Z,1.65
2023-06-29T16:57:29.253Z,1.75
2023-06-29T16:59:56.680Z,2.00
2023-06-29T17:02:24.608Z,1.45
2023-06-29T17:04:52.541Z,1.77
2023-06-29T17:07:22.016Z,1.92
2023-06-29T17:09:49.745Z,1.83
2023-06-29T17:12:17.186Z,1.70
2023-06-29T17:14:44.624Z,1.80
2023-06-29T17:17:12.381Z,1.33
2023-06-29T17:19:40.394Z,1.50
2023-06-29T17:22:11.360Z,1.70
2023-06-29T17:24:40.069Z,1.48
2023-06-29T17:27:08.742Z,1.98
2023-06-29T17:29:37.896Z,1.60
2023-06-29T17:32:06.256Z,1.90
2023-06-29T17:34:34.030Z,1.75
2023-06-29T17:37:03.210Z,1.50
2023-06-29T17:39:31.017Z,1.65
2023-06-29T17:41:59.800Z,1.70
2023-06-29T17:44:27.546Z,1.90
2023-06-29T17:46:56.230Z,1.40
2023-06-29T17:49:28.172Z,1.58
2023-06-29T17:51:56.801Z,1.80
2023-06-29T17:54:25.548Z,1.30
2023-06-29T17:56:53.802Z,1.60
2023-06-29T17:59:22.154Z,1.52
2023-06-29T18:01:51.054Z,1.42
2023-06-29T18:04:20.709Z,1.33
2023-06-29T18:06:48.889Z,1.42
2023-06-29T18:09:16.745Z,1.90
2023-06-29T18:11:44.648Z,1.20
2023-06-29T18:14:12.360Z,1.83
2023-06-29T18:16:40.857Z,1.65
2023-06-29T18:19:09.635Z,1.50
2023-06-29T18:21:37.284Z,1.50
2023-06-29T18:24:06.318Z,1.77
2023-06-29T18:26:35.992Z,1.80
2023-06-29T18:29:04.388Z,1.55
2023-06-29T18:31:32.558Z,1.65
2023-06-29T18:34:02.049Z,1.60
2023-06-29T18:36:30.558Z,1.40
2023-06-29T18:38:59.857Z,1.62
2023-06-29T18:41:35.409Z,1.70
2023-06-29T18:44:04.581Z,1.80
2023-06-29T18:47:09.681Z,1.77
2023-06-29T18:49:50.773Z,1.65
2023-06-29T18:52:21.514Z,1.80
2023-06-29T18:54:51.739Z,1.75
2023-06-29T18:57:19.271Z,1.65
2023-06-29T18:59:48.642Z,1.70
2023-06-29T19:02:16.318Z,1.77
2023-06-29T19:04:43.831Z,1.52
2023-06-29T19:07:12.588Z,1.90
2023-06-29T19:09:40.301Z,1.95
2023-06-29T19:12:08.189Z,1.85
2023-06-29T19:14:36.430Z,1.80
2023-06-29T19:17:05.196Z,1.87
2023-06-29T19:19:34.281Z,1.95
2023-06-29T19:22:03.741Z,2.10
2023-06-29T19:24:31.140Z,1.98
2023-06-29T19:26:58.937Z,1.73
2023-06-29T19:29:26.899Z,1.60
2023-06-29T19:31:56.008Z,1.90
2023-06-29T19:34:23.502Z,1.75
2023-06-29T19:36:52.321Z,1.80
2023-06-29T19:39:20.361Z,1.87
2023-06-29T19:41:47.988Z,1.80
2023-06-29T19:44:16.109Z,1.90
2023-06-29T19:46:43.970Z,1.98
2023-06-29T19:49:11.829Z,1.73
2023-06-29T19:51:40.354Z,2.08
2023-06-29T19:54:08.592Z,1.73
2023-06-29T19:56:37.491Z,2.22
2023-06-29T19:59:05.541Z,1.98
2023-06-29T20:01:34.094Z,2.05
2023-06-29T20:04:03.642Z,2.22
2023-06-29T20:06:31.736Z,2.20
2023-06-29T20:09:01.581Z,1.67
2023-06-29T20:11:30.796Z,2.10
2023-06-29T20:13:59.008Z,1.80
2023-06-29T20:16:26.807Z,2.08
2023-06-29T20:18:55.099Z,2.00
2023-06-29T20:21:23.122Z,2.50
2023-06-29T20:23:52.153Z,1.83
2023-06-29T20:26:20.572Z,2.00
2023-06-29T20:28:49.038Z,1.95
2023-06-29T20:31:17.334Z,2.30
2023-06-29T20:33:46.075Z,2.85
2023-06-29T20:36:14.642Z,3.05
2023-06-29T20:38:43.293Z,2.80
2023-06-29T20:41:12.955Z,2.92
2023-06-29T20:43:47.427Z,2.75
2023-06-29T20:46:19.484Z,3.05
2023-06-29T20:48:47.573Z,2.75
2023-06-29T20:51:18.215Z,2.80
2023-06-29T20:53:46.434Z,3.42
2023-06-29T20:56:14.568Z,2.97
2023-06-29T20:58:43.115Z,3.40
2023-06-29T21:01:10.858Z,3.30
2023-06-29T21:03:39.637Z,3.28
2023-06-29T21:06:07.421Z,3.55
2023-06-29T21:08:35.363Z,3.20
2023-06-29T21:11:03.342Z,3.00
2023-06-29T21:13:31.251Z,2.97
2023-06-29T21:15:58.940Z,3.35
2023-06-29T21:18:26.609Z,2.62
2023-06-29T21:20:54.530Z,2.92
2023-06-29T21:23:22.327Z,2.87
2023-06-29T21:25:50.113Z,2.87
2023-06-29T21:28:18.197Z,2.75
2023-06-29T21:30:46.310Z,3.05
2023-06-29T21:33:14.003Z,3.10
2023-06-29T21:35:44.382Z,3.62
2023-06-29T21:38:12.282Z,3.78
2023-06-29T21:40:40.126Z,2.80
2023-06-29T21:43:07.883Z,2.95
2023-06-29T21:45:35.301Z,2.75
2023-06-29T21:48:02.812Z,2.65
2023-06-29T21:50:30.546Z,2.87
2023-06-29T21:52:58.046Z,2.45
2023-06-29T21:55:26.787Z,2.60
2023-06-29T21:57:57.526Z,2.87
2023-06-29T22:00:25.210Z,2.50
2023-06-29T22:05:43.572Z,2.65
2023-06-29T22:08:32.603Z,2.72
2023-06-29T22:11:21.132Z,2.42
2023-06-29T22:13:49.396Z,2.53
2023-06-29T22:16:21.627Z,2.60
2023-06-29T22:18:52.120Z,2.62
2023-06-29T22:21:22.096Z,2.75
2023-06-29T22:23:51.027Z,2.60
2023-06-29T22:26:19.691Z,2.47
2023-06-29T22:28:47.532Z,2.22
2023-06-29T22:31:18.751Z,2.70
2023-06-29T22:33:47.365Z,2.78
2023-06-29T22:36:19.184Z,2.50
2023-06-29T22:38:46.984Z,2.50
2023-06-29T22:41:14.988Z,2.53
2023-06-29T22:50:02.307Z,2.97
2023-06-29T22:52:30.017Z,2.70
2023-06-29T22:54:57.433Z,2.80
2023-06-29T22:57:26.177Z,2.80
2023-06-29T22:59:56.531Z,2.92
2023-06-29T23:02:24.157Z,2.75
2023-06-29T23:04:53.611Z,2.90
2023-06-29T23:07:23.366Z,2.95
2023-06-29T23:09:50.892Z,2.95
2023-06-29T23:12:22.436Z,3.08
2023-06-29T23:14:52.586Z,2.75
2023-06-29T23:17:26.230Z,3.10
2023-06-29T23:19:54.071Z,2.45
2023-06-29T23:22:22.846Z,3.10
2023-06-29T23:24:53.929Z,2.45
2023-06-29T23:27:21.955Z,3.00
2023-06-29T23:29:54.006Z,3.17
2023-06-29T23:32:22.595Z,2.67
2023-06-29T23:34:50.130Z,2.62
2023-06-29T23:37:17.543Z,2.60
2023-06-29T23:39:45.245Z,2.95
2023-06-29T23:42:12.662Z,3.00
2023-06-29T23:44:41.938Z,2.67
2023-06-29T23:47:11.071Z,2.87
2023-06-29T23:49:38.613Z,2.70
2023-06-29T23:52:10.861Z,3.00
2023-06-29T23:54:38.934Z,2.58
2023-06-29T23:57:07.120Z,3.40
2023-06-29T23:59:34.551Z,2.78
